FCBB/BZV METAR and TAF weather

Enter ICAO airport designator
Station Type Date Time Source
FCBB METAR 2019/12/10 03:00 UTC NOAA

FCBB 100300Z 28005KT 250V320 8000 -TSRA FEW016 FEW026CB 24/23 Q1012 NOSIG


Station Type Date Time Source
FCBB Decoded METAR 2019/12/10 03:00 UTC NOAA

Brazzaville / Maya-Maya, Congo, Republic of the (FCBB) 04-15S 015-15E 316M
Dec 09, 2019 - 10:00 PM EST / 2019.12.10 0300 UTC
Wind: from the W (280 degrees) at 6 MPH (5 KT) (direction variable):0
Visibility: 4 mile(s):0
Sky conditions: mostly clear
Weather: light rain with thunder; Cumulonimbus clouds observed
Temperature: 75 F (24 C)
Dew Point: 73 F (23 C)
Relative Humidity: 94%
Pressure (altimeter): 29.88 in. Hg (1012 hPa)
ob: FCBB 100300Z 28005KT 250V320 8000 -TSRA FEW016 FEW026CB 24/23 Q1012 NOSIG
cycle: 3

Station Type Date Time Source
FCBB TAF 2019/12/09 18:03 UTC NOAA

TAF TAF FCBB 091700Z 0918/1024 27004KT 9999 SCT016 FEW030CB PRB40 0918/0921 TS
BECMG 0922/0924 FEW016
BECMG 1012/1014 SCT023 FEW030CB

Example: see airport list